Red Owl, South Dakota
Current Conditions -  °F | °C
As of 6:58 AM on Saturday 25 Oct 2014 (Local Time) from KRCA Reporting Station
Clear Clear  
Wind Chill: 39°   Ceiling: Unl
Heat Index: 39°   Visibility: 9mi
Dew Point: 30°   Wind: 2mph
Humidity: 71%   Direction: 300°WNW
Pressure: 30.16"   Gusts: NA
Location:  44.7°N, 102.55°W
Report Text: KRCA 251258Z AUTO 30002KT 9SM CLR 04/M01 A3016 RMK AO2 SLP219 T00391010 $
Loading
Personal Weather Stations






























Interactive Weather Map New forecast layout! Learn more

10-Day Weather Forecast

Advertisements
Track Severe Weather on mobile